VIR708 EGLL-EGPF
Flight info
| Callsign | VIR708 |
|---|---|
| Flight time | 0h 59m |
| Altitude | 36000 |
| Route | ULTIB T420 TNT UN57 POL UN601 RIBEL DCT ASLIB |
| Aircraft | A346/H-SDE2E3FGHIJ3J4J5M1RWXY/LB1D1 |
Departure
| Time | 2026-05-06 23:58 |
|---|---|
| Airport | London Heathrow Airport (EGLL) |
Arrival
| Time | 2026-05-07 00:58 |
|---|---|
| Airport | Glasgow Airport (EGPF) |
| Time | Latitude | Longitude | Altitude | Speed | Heading |
|---|---|---|---|---|---|
| 2026-05-06 23:14 | 51.46903 | -0.46418 | 96 ft | 0 kts | 55° |
| 2026-05-06 23:47 | 51.46902 | -0.46418 | 94 ft | 0 kts | 55° |
| 2026-05-06 23:48 | 51.46902 | -0.46419 | 94 ft | 0 kts | 55° |
| 2026-05-06 23:49 | 51.46901 | -0.46422 | 94 ft | 0 kts | 55° |
| 2026-05-06 23:49 | 51.46889 | -0.46449 | 98 ft | 0 kts | 55° |
| 2026-05-06 23:49 | 51.46874 | -0.46484 | 95 ft | 0 kts | 55° |
| 2026-05-06 23:49 | 51.46859 | -0.46519 | 95 ft | 0 kts | 55° |
| 2026-05-06 23:50 | 51.46846 | -0.46550 | 96 ft | 0 kts | 60° |
| 2026-05-06 23:50 | 51.46846 | -0.46551 | 96 ft | 0 kts | 60° |
| 2026-05-06 23:51 | 51.46846 | -0.46550 | 96 ft | 0 kts | 60° |
| 2026-05-06 23:51 | 51.46847 | -0.46548 | 95 ft | 0 kts | 60° |
| 2026-05-06 23:53 | 51.46847 | -0.46547 | 95 ft | 1 kts | 60° |
| 2026-05-06 23:53 | 51.46845 | -0.46517 | 95 ft | 8 kts | 110° |
| 2026-05-06 23:53 | 51.46806 | -0.46460 | 97 ft | 8 kts | 154° |
| 2026-05-06 23:53 | 51.46760 | -0.46478 | 96 ft | 7 kts | 237° |
| 2026-05-06 23:54 | 51.46748 | -0.46571 | 98 ft | 10 kts | 269° |
| 2026-05-06 23:54 | 51.46747 | -0.46702 | 98 ft | 13 kts | 269° |
| 2026-05-06 23:54 | 51.46748 | -0.46865 | 98 ft | 16 kts | 270° |
| 2026-05-06 23:54 | 51.46748 | -0.47066 | 98 ft | 20 kts | 270° |
| 2026-05-06 23:55 | 51.46747 | -0.47301 | 98 ft | 22 kts | 269° |
| 2026-05-06 23:55 | 51.46745 | -0.47564 | 94 ft | 25 kts | 269° |
| 2026-05-06 23:55 | 51.46744 | -0.47849 | 94 ft | 26 kts | 270° |
| 2026-05-06 23:55 | 51.46743 | -0.48155 | 95 ft | 28 kts | 269° |
| 2026-05-06 23:56 | 51.46742 | -0.48419 | 95 ft | 15 kts | 270° |
| 2026-05-06 23:56 | 51.46742 | -0.48588 | 94 ft | 17 kts | 270° |
| 2026-05-06 23:56 | 51.46701 | -0.48735 | 98 ft | 14 kts | 205° |
| 2026-05-06 23:56 | 51.46608 | -0.48770 | 97 ft | 10 kts | 194° |
| 2026-05-06 23:57 | 51.46543 | -0.48786 | 98 ft | 11 kts | 175° |
| 2026-05-06 23:57 | 51.46483 | -0.48705 | 97 ft | 13 kts | 109° |
| 2026-05-06 23:57 | 51.46478 | -0.48537 | 95 ft | 20 kts | 90° |
| 2026-05-06 23:57 | 51.46482 | -0.47886 | 97 ft | 96 kts | 89° |
| 2026-05-06 23:58 | 51.46489 | -0.46440 | 97 ft | 160 kts | 90° |
| 2026-05-06 23:58 | 51.46487 | -0.44404 | 326 ft | 193 kts | 89° |
| 2026-05-06 23:58 | 51.46501 | -0.42291 | 1253 ft | 185 kts | 85° |
| 2026-05-06 23:58 | 51.46912 | -0.40390 | 2130 ft | 185 kts | 53° |
| 2026-05-06 23:59 | 51.47771 | -0.38754 | 2786 ft | 199 kts | 48° |
| 2026-05-06 23:59 | 51.48737 | -0.37029 | 3381 ft | 216 kts | 47° |
| 2026-05-06 23:59 | 51.49430 | -0.35776 | 3751 ft | 229 kts | 48° |
| 2026-05-06 23:59 | 51.50514 | -0.33774 | 4311 ft | 250 kts | 49° |
| 2026-05-07 00:00 | 51.51684 | -0.31573 | 5025 ft | 265 kts | 50° |
| 2026-05-07 00:00 | 51.52706 | -0.29003 | 5665 ft | 285 kts | 67° |
| 2026-05-07 00:00 | 51.53389 | -0.25862 | 5986 ft | 302 kts | 73° |
| 2026-05-07 00:00 | 51.53982 | -0.22664 | 5982 ft | 287 kts | 73° |
| 2026-05-07 00:01 | 51.54691 | -0.19762 | 5946 ft | 273 kts | 54° |
| 2026-05-07 00:01 | 51.56134 | -0.17846 | 5984 ft | 272 kts | 22° |
| 2026-05-07 00:01 | 51.57988 | -0.17404 | 6019 ft | 272 kts | 351° |
| 2026-05-07 00:01 | 51.59713 | -0.18557 | 6022 ft | 272 kts | 320° |
| 2026-05-07 00:02 | 51.60924 | -0.20885 | 6040 ft | 271 kts | 304° |
| 2026-05-07 00:02 | 51.62106 | -0.23200 | 6031 ft | 272 kts | 314° |
| 2026-05-07 00:02 | 51.63531 | -0.25206 | 6030 ft | 272 kts | 322° |
| 2026-05-07 00:02 | 51.65084 | -0.26949 | 6027 ft | 272 kts | 326° |
| 2026-05-07 00:03 | 51.66693 | -0.28572 | 6049 ft | 276 kts | 328° |
| 2026-05-07 00:03 | 51.68365 | -0.30197 | 6661 ft | 284 kts | 329° |
| 2026-05-07 00:03 | 51.70045 | -0.31812 | 7828 ft | 278 kts | 328° |
| 2026-05-07 00:03 | 51.71696 | -0.33402 | 8963 ft | 276 kts | 329° |
| 2026-05-07 00:04 | 51.73351 | -0.34998 | 9965 ft | 279 kts | 329° |
| 2026-05-07 00:04 | 51.75033 | -0.36622 | 10755 ft | 286 kts | 329° |
| 2026-05-07 00:04 | 51.76795 | -0.38324 | 11270 ft | 304 kts | 329° |
| 2026-05-07 00:04 | 51.78661 | -0.40131 | 11720 ft | 322 kts | 329° |
| 2026-05-07 00:05 | 51.80641 | -0.42050 | 12191 ft | 341 kts | 329° |
| 2026-05-07 00:05 | 51.82716 | -0.44061 | 12771 ft | 354 kts | 328° |
| 2026-05-07 00:05 | 51.84841 | -0.46123 | 13675 ft | 358 kts | 328° |
| 2026-05-07 00:05 | 51.86984 | -0.48204 | 14522 ft | 361 kts | 328° |
| 2026-05-07 00:06 | 51.89154 | -0.50314 | 15319 ft | 366 kts | 328° |
| 2026-05-07 00:06 | 51.91352 | -0.52454 | 16111 ft | 371 kts | 328° |
| 2026-05-07 00:06 | 51.93575 | -0.54622 | 16882 ft | 375 kts | 328° |
| 2026-05-07 00:06 | 51.95824 | -0.56817 | 17680 ft | 380 kts | 328° |
| 2026-05-07 00:07 | 51.98101 | -0.59043 | 18451 ft | 384 kts | 328° |
| 2026-05-07 00:07 | 52.00401 | -0.61295 | 19123 ft | 389 kts | 328° |
| 2026-05-07 00:07 | 52.02728 | -0.63574 | 19813 ft | 392 kts | 328° |
| 2026-05-07 00:07 | 52.05077 | -0.65877 | 20519 ft | 396 kts | 328° |
| 2026-05-07 00:08 | 52.07449 | -0.68204 | 21220 ft | 400 kts | 328° |
| 2026-05-07 00:08 | 52.09809 | -0.70526 | 21895 ft | 404 kts | 327° |
| 2026-05-07 00:08 | 52.12261 | -0.72941 | 22465 ft | 409 kts | 327° |
| 2026-05-07 00:08 | 52.14706 | -0.75352 | 22977 ft | 412 kts | 327° |
| 2026-05-07 00:09 | 52.17162 | -0.77776 | 23552 ft | 414 kts | 327° |
| 2026-05-07 00:09 | 52.19600 | -0.80186 | 23991 ft | 417 kts | 327° |
| 2026-05-07 00:09 | 52.22118 | -0.82680 | 24426 ft | 420 kts | 328° |
| 2026-05-07 00:09 | 52.24590 | -0.85131 | 24846 ft | 422 kts | 328° |
| 2026-05-07 00:10 | 52.27101 | -0.87624 | 25280 ft | 424 kts | 328° |
| 2026-05-07 00:10 | 52.29632 | -0.90144 | 25716 ft | 426 kts | 328° |
| 2026-05-07 00:10 | 52.32172 | -0.92669 | 26141 ft | 428 kts | 328° |
| 2026-05-07 00:10 | 52.34724 | -0.95207 | 26554 ft | 431 kts | 328° |
| 2026-05-07 00:11 | 52.37292 | -0.97764 | 26953 ft | 433 kts | 329° |
| 2026-05-07 00:11 | 52.39867 | -1.00335 | 27339 ft | 436 kts | 329° |
| 2026-05-07 00:11 | 52.42460 | -1.02929 | 27705 ft | 438 kts | 329° |
| 2026-05-07 00:11 | 52.45071 | -1.05543 | 28057 ft | 441 kts | 329° |
| 2026-05-07 00:12 | 52.47695 | -1.08174 | 28434 ft | 443 kts | 329° |
| 2026-05-07 00:12 | 52.50330 | -1.10820 | 28777 ft | 445 kts | 329° |
| 2026-05-07 00:12 | 52.52983 | -1.13488 | 29142 ft | 447 kts | 329° |
| 2026-05-07 00:12 | 52.55641 | -1.16165 | 29501 ft | 449 kts | 329° |
| 2026-05-07 00:13 | 52.58307 | -1.18854 | 29916 ft | 450 kts | 329° |
| 2026-05-07 00:13 | 52.60971 | -1.21544 | 30367 ft | 448 kts | 329° |
| 2026-05-07 00:13 | 52.63620 | -1.24222 | 30807 ft | 446 kts | 329° |
| 2026-05-07 00:13 | 52.66258 | -1.26893 | 31242 ft | 445 kts | 329° |
| 2026-05-07 00:14 | 52.68892 | -1.29564 | 31655 ft | 444 kts | 329° |
| 2026-05-07 00:14 | 52.71517 | -1.32231 | 32066 ft | 443 kts | 329° |
| 2026-05-07 00:14 | 52.74139 | -1.34901 | 32547 ft | 442 kts | 329° |
| 2026-05-07 00:14 | 52.76752 | -1.37568 | 32961 ft | 441 kts | 330° |
| 2026-05-07 00:15 | 52.79356 | -1.40233 | 33384 ft | 439 kts | 330° |
| 2026-05-07 00:15 | 52.81946 | -1.42882 | 33817 ft | 437 kts | 330° |
| 2026-05-07 00:15 | 52.84531 | -1.45527 | 34185 ft | 436 kts | 330° |
| 2026-05-07 00:15 | 52.87110 | -1.48165 | 34472 ft | 436 kts | 330° |
| 2026-05-07 00:16 | 52.89694 | -1.50812 | 34701 ft | 438 kts | 330° |
| 2026-05-07 00:16 | 52.92292 | -1.53484 | 34869 ft | 440 kts | 330° |
| 2026-05-07 00:16 | 52.94896 | -1.56166 | 35062 ft | 442 kts | 330° |
| 2026-05-07 00:16 | 52.97516 | -1.58866 | 35266 ft | 444 kts | 330° |
| 2026-05-07 00:17 | 53.00097 | -1.61530 | 35485 ft | 445 kts | 329° |
| 2026-05-07 00:17 | 53.02795 | -1.64195 | 35709 ft | 445 kts | 332° |
| 2026-05-07 00:17 | 53.05494 | -1.66557 | 35927 ft | 445 kts | 335° |
| 2026-05-07 00:17 | 53.08310 | -1.68715 | 36087 ft | 446 kts | 338° |
| 2026-05-07 00:18 | 53.14197 | -1.72521 | 36100 ft | 457 kts | 340° |
| 2026-05-07 00:18 | 53.20222 | -1.76241 | 36109 ft | 466 kts | 340° |
| 2026-05-07 00:19 | 53.26347 | -1.80040 | 36110 ft | 473 kts | 340° |
| 2026-05-07 00:19 | 53.32540 | -1.83904 | 36105 ft | 477 kts | 340° |
| 2026-05-07 00:20 | 53.38776 | -1.87812 | 36096 ft | 480 kts | 340° |
| 2026-05-07 00:20 | 53.45034 | -1.91745 | 36172 ft | 480 kts | 340° |
| 2026-05-07 00:21 | 53.48152 | -1.93709 | 36313 ft | 477 kts | 340° |
| 2026-05-07 00:21 | 53.51254 | -1.95664 | 36491 ft | 475 kts | 340° |
| 2026-05-07 00:21 | 53.54346 | -1.97613 | 36614 ft | 474 kts | 340° |
| 2026-05-07 00:21 | 53.57439 | -1.99563 | 36731 ft | 474 kts | 340° |
| 2026-05-07 00:22 | 53.60521 | -2.01507 | 36848 ft | 474 kts | 339° |
| 2026-05-07 00:22 | 53.63603 | -2.03451 | 36938 ft | 473 kts | 339° |
| 2026-05-07 00:22 | 53.69775 | -2.07347 | 37105 ft | 474 kts | 339° |
| 2026-05-07 00:23 | 53.75906 | -2.11218 | 37254 ft | 474 kts | 339° |
| 2026-05-07 00:23 | 53.82087 | -2.15121 | 37403 ft | 474 kts | 339° |
| 2026-05-07 00:24 | 53.88273 | -2.19030 | 37531 ft | 474 kts | 339° |
| 2026-05-07 00:24 | 53.94461 | -2.22943 | 37651 ft | 475 kts | 339° |
| 2026-05-07 00:25 | 53.97526 | -2.24920 | 37773 ft | 464 kts | 336° |
| 2026-05-07 00:25 | 54.00373 | -2.27332 | 37576 ft | 453 kts | 331° |
| 2026-05-07 00:25 | 54.03106 | -2.29892 | 37350 ft | 446 kts | 330° |
| 2026-05-07 00:25 | 54.05787 | -2.32538 | 37059 ft | 445 kts | 330° |
| 2026-05-07 00:26 | 54.08469 | -2.35182 | 36799 ft | 445 kts | 330° |
| 2026-05-07 00:26 | 54.11157 | -2.37795 | 36545 ft | 445 kts | 330° |
| 2026-05-07 00:26 | 54.13852 | -2.40383 | 36278 ft | 445 kts | 331° |
| 2026-05-07 00:26 | 54.16556 | -2.42959 | 36092 ft | 444 kts | 331° |
| 2026-05-07 00:27 | 54.21961 | -2.48080 | 35821 ft | 444 kts | 332° |
| 2026-05-07 00:27 | 54.24656 | -2.50629 | 35581 ft | 440 kts | 332° |
| 2026-05-07 00:27 | 54.27322 | -2.53153 | 35323 ft | 436 kts | 332° |
| 2026-05-07 00:28 | 54.29965 | -2.55659 | 35040 ft | 433 kts | 332° |
| 2026-05-07 00:28 | 54.32596 | -2.58157 | 34715 ft | 431 kts | 332° |
| 2026-05-07 00:28 | 54.35217 | -2.60648 | 34281 ft | 431 kts | 332° |
| 2026-05-07 00:28 | 54.37844 | -2.63147 | 33712 ft | 431 kts | 332° |
| 2026-05-07 00:29 | 54.40469 | -2.65641 | 33111 ft | 431 kts | 332° |
| 2026-05-07 00:29 | 54.43099 | -2.68141 | 32515 ft | 431 kts | 331° |
| 2026-05-07 00:30 | 54.50980 | -2.75663 | 30717 ft | 433 kts | 330° |
| 2026-05-07 00:30 | 54.53612 | -2.78189 | 30092 ft | 434 kts | 329° |
| 2026-05-07 00:30 | 54.56254 | -2.80734 | 29368 ft | 435 kts | 329° |
| 2026-05-07 00:30 | 54.58892 | -2.83279 | 28915 ft | 435 kts | 329° |
| 2026-05-07 00:31 | 54.61523 | -2.85820 | 28519 ft | 433 kts | 329° |
| 2026-05-07 00:31 | 54.64107 | -2.88317 | 28118 ft | 430 kts | 329° |
| 2026-05-07 00:31 | 54.66744 | -2.90867 | 27694 ft | 427 kts | 329° |
| 2026-05-07 00:31 | 54.69329 | -2.93371 | 27293 ft | 424 kts | 329° |
| 2026-05-07 00:32 | 54.71892 | -2.95855 | 26892 ft | 421 kts | 329° |
| 2026-05-07 00:32 | 54.74406 | -2.98290 | 26483 ft | 418 kts | 328° |
| 2026-05-07 00:32 | 54.76917 | -3.00737 | 26226 ft | 409 kts | 328° |
| 2026-05-07 00:32 | 54.79357 | -3.03116 | 26163 ft | 395 kts | 328° |
| 2026-05-07 00:33 | 54.81717 | -3.05419 | 26054 ft | 382 kts | 328° |
| 2026-05-07 00:33 | 54.83994 | -3.07642 | 26056 ft | 369 kts | 328° |
| 2026-05-07 00:33 | 54.86182 | -3.09782 | 26049 ft | 354 kts | 328° |
| 2026-05-07 00:33 | 54.88286 | -3.11843 | 26044 ft | 340 kts | 327° |
| 2026-05-07 00:34 | 54.90299 | -3.13815 | 26041 ft | 325 kts | 327° |
| 2026-05-07 00:34 | 54.92240 | -3.15721 | 25973 ft | 318 kts | 327° |
| 2026-05-07 00:34 | 54.94176 | -3.17628 | 25494 ft | 321 kts | 327° |
| 2026-05-07 00:34 | 54.96125 | -3.19550 | 25027 ft | 322 kts | 327° |
| 2026-05-07 00:35 | 54.98073 | -3.21467 | 24627 ft | 322 kts | 327° |
| 2026-05-07 00:35 | 55.00022 | -3.23390 | 24224 ft | 322 kts | 327° |
| 2026-05-07 00:35 | 55.01959 | -3.25304 | 23917 ft | 317 kts | 327° |
| 2026-05-07 00:35 | 55.03866 | -3.27189 | 23604 ft | 313 kts | 327° |
| 2026-05-07 00:36 | 55.05754 | -3.29056 | 23238 ft | 309 kts | 327° |
| 2026-05-07 00:36 | 55.07610 | -3.30894 | 22909 ft | 305 kts | 327° |
| 2026-05-07 00:36 | 55.09441 | -3.32709 | 22521 ft | 301 kts | 327° |
| 2026-05-07 00:36 | 55.11256 | -3.34512 | 22077 ft | 299 kts | 326° |
| 2026-05-07 00:37 | 55.13060 | -3.36306 | 21617 ft | 298 kts | 326° |
| 2026-05-07 00:37 | 55.14859 | -3.38097 | 21113 ft | 298 kts | 326° |
| 2026-05-07 00:37 | 55.16667 | -3.39899 | 20611 ft | 299 kts | 326° |
| 2026-05-07 00:37 | 55.18476 | -3.41704 | 20176 ft | 299 kts | 326° |
| 2026-05-07 00:38 | 55.20286 | -3.43510 | 19736 ft | 301 kts | 326° |
| 2026-05-07 00:38 | 55.22117 | -3.45340 | 19238 ft | 304 kts | 326° |
| 2026-05-07 00:38 | 55.23943 | -3.47162 | 18948 ft | 300 kts | 326° |
| 2026-05-07 00:38 | 55.25741 | -3.48960 | 18673 ft | 295 kts | 326° |
| 2026-05-07 00:39 | 55.27512 | -3.50733 | 18402 ft | 291 kts | 326° |
| 2026-05-07 00:39 | 55.29263 | -3.52489 | 18070 ft | 288 kts | 326° |
| 2026-05-07 00:39 | 55.30999 | -3.54233 | 17670 ft | 287 kts | 326° |
| 2026-05-07 00:39 | 55.32727 | -3.55972 | 17309 ft | 285 kts | 326° |
| 2026-05-07 00:40 | 55.34448 | -3.57703 | 16940 ft | 284 kts | 326° |
| 2026-05-07 00:40 | 55.36159 | -3.59426 | 16559 ft | 283 kts | 326° |
| 2026-05-07 00:40 | 55.37859 | -3.61139 | 16201 ft | 281 kts | 326° |
| 2026-05-07 00:40 | 55.39531 | -3.62826 | 15855 ft | 280 kts | 327° |
| 2026-05-07 00:41 | 55.41216 | -3.64528 | 15506 ft | 279 kts | 327° |
| 2026-05-07 00:41 | 55.42895 | -3.66225 | 15164 ft | 277 kts | 327° |
| 2026-05-07 00:41 | 55.44565 | -3.67913 | 14828 ft | 276 kts | 327° |
| 2026-05-07 00:41 | 55.46228 | -3.69597 | 14507 ft | 275 kts | 327° |
| 2026-05-07 00:42 | 55.47884 | -3.71274 | 14208 ft | 273 kts | 327° |
| 2026-05-07 00:42 | 55.49524 | -3.72939 | 13908 ft | 271 kts | 327° |
| 2026-05-07 00:42 | 55.51154 | -3.74595 | 13536 ft | 270 kts | 327° |
| 2026-05-07 00:42 | 55.52781 | -3.76248 | 13182 ft | 269 kts | 327° |
| 2026-05-07 00:43 | 55.54397 | -3.77893 | 12815 ft | 268 kts | 327° |
| 2026-05-07 00:43 | 55.56008 | -3.79536 | 12449 ft | 267 kts | 327° |
| 2026-05-07 00:43 | 55.57632 | -3.81192 | 12080 ft | 266 kts | 327° |
| 2026-05-07 00:43 | 55.59231 | -3.82825 | 11731 ft | 265 kts | 327° |
| 2026-05-07 00:44 | 55.60828 | -3.84457 | 11372 ft | 264 kts | 327° |
| 2026-05-07 00:44 | 55.62417 | -3.86083 | 11010 ft | 263 kts | 327° |
| 2026-05-07 00:44 | 55.63998 | -3.87702 | 10647 ft | 262 kts | 327° |
| 2026-05-07 00:44 | 55.65579 | -3.89323 | 10277 ft | 262 kts | 327° |
| 2026-05-07 00:45 | 55.67151 | -3.90935 | 9955 ft | 261 kts | 327° |
| 2026-05-07 00:45 | 55.68719 | -3.92548 | 9598 ft | 260 kts | 326° |
| 2026-05-07 00:45 | 55.70132 | -3.94488 | 9223 ft | 255 kts | 309° |
| 2026-05-07 00:45 | 55.71163 | -3.97024 | 8872 ft | 252 kts | 299° |
| 2026-05-07 00:46 | 55.72074 | -3.99671 | 8537 ft | 251 kts | 298° |
| 2026-05-07 00:46 | 55.72969 | -4.02315 | 8217 ft | 250 kts | 298° |
| 2026-05-07 00:46 | 55.73864 | -4.04953 | 7871 ft | 248 kts | 298° |
| 2026-05-07 00:46 | 55.74758 | -4.07580 | 7519 ft | 248 kts | 298° |
| 2026-05-07 00:47 | 55.75652 | -4.10195 | 7200 ft | 248 kts | 298° |
| 2026-05-07 00:47 | 55.76243 | -4.11923 | 7030 ft | 246 kts | 298° |
| 2026-05-07 00:47 | 55.77137 | -4.14548 | 7025 ft | 251 kts | 298° |
| 2026-05-07 00:47 | 55.78322 | -4.18064 | 6663 ft | 254 kts | 298° |
| 2026-05-07 00:48 | 55.79254 | -4.20846 | 6022 ft | 265 kts | 297° |
| 2026-05-07 00:48 | 55.80188 | -4.23681 | 5721 ft | 264 kts | 297° |
| 2026-05-07 00:48 | 55.81117 | -4.26514 | 5589 ft | 265 kts | 297° |
| 2026-05-07 00:48 | 55.82047 | -4.29353 | 5459 ft | 265 kts | 297° |
| 2026-05-07 00:49 | 55.82975 | -4.32183 | 5330 ft | 265 kts | 297° |
| 2026-05-07 00:49 | 55.83903 | -4.35015 | 5195 ft | 265 kts | 297° |
| 2026-05-07 00:49 | 55.84530 | -4.36924 | 5109 ft | 264 kts | 297° |
| 2026-05-07 00:49 | 55.85358 | -4.39826 | 4957 ft | 260 kts | 282° |
| 2026-05-07 00:50 | 55.85403 | -4.42964 | 4813 ft | 253 kts | 253° |
| 2026-05-07 00:50 | 55.84622 | -4.45701 | 4688 ft | 248 kts | 227° |
| 2026-05-07 00:50 | 55.83240 | -4.47489 | 4556 ft | 247 kts | 204° |
| 2026-05-07 00:50 | 55.81651 | -4.48682 | 4427 ft | 246 kts | 203° |
| 2026-05-07 00:51 | 55.80071 | -4.49849 | 4309 ft | 245 kts | 203° |
| 2026-05-07 00:51 | 55.78498 | -4.51026 | 4172 ft | 245 kts | 203° |
| 2026-05-07 00:51 | 55.76930 | -4.52197 | 4046 ft | 244 kts | 203° |
| 2026-05-07 00:51 | 55.75379 | -4.53360 | 3825 ft | 240 kts | 202° |
| 2026-05-07 00:52 | 55.73868 | -4.54492 | 3670 ft | 232 kts | 202° |
| 2026-05-07 00:52 | 55.72406 | -4.55587 | 3511 ft | 224 kts | 202° |
| 2026-05-07 00:52 | 55.70995 | -4.56645 | 3333 ft | 216 kts | 202° |
| 2026-05-07 00:52 | 55.69705 | -4.57894 | 3145 ft | 210 kts | 220° |
| 2026-05-07 00:53 | 55.68848 | -4.59912 | 2895 ft | 210 kts | 243° |
| 2026-05-07 00:53 | 55.68517 | -4.62445 | 2607 ft | 215 kts | 265° |
| 2026-05-07 00:53 | 55.68805 | -4.65062 | 2409 ft | 222 kts | 289° |
| 2026-05-07 00:53 | 55.69718 | -4.67326 | 2409 ft | 232 kts | 315° |
| 2026-05-07 00:54 | 55.71141 | -4.68716 | 2393 ft | 238 kts | 343° |
| 2026-05-07 00:54 | 55.72789 | -4.68776 | 2392 ft | 241 kts | 17° |
| 2026-05-07 00:54 | 55.74264 | -4.67426 | 2407 ft | 239 kts | 40° |
| 2026-05-07 00:54 | 55.75477 | -4.65431 | 2404 ft | 237 kts | 49° |
| 2026-05-07 00:55 | 55.76600 | -4.63286 | 2405 ft | 236 kts | 51° |
| 2026-05-07 00:55 | 55.77685 | -4.61174 | 2374 ft | 228 kts | 50° |
| 2026-05-07 00:55 | 55.78766 | -4.59110 | 2276 ft | 228 kts | 50° |
| 2026-05-07 00:55 | 55.79857 | -4.57060 | 1942 ft | 225 kts | 49° |
| 2026-05-07 00:56 | 55.80901 | -4.55116 | 1687 ft | 210 kts | 49° |
| 2026-05-07 00:56 | 55.81879 | -4.53285 | 1370 ft | 197 kts | 49° |
| 2026-05-07 00:56 | 55.82786 | -4.51580 | 1089 ft | 182 kts | 48° |
| 2026-05-07 00:56 | 55.83621 | -4.50014 | 824 ft | 166 kts | 48° |
| 2026-05-07 00:57 | 55.84382 | -4.48594 | 640 ft | 152 kts | 48° |
| 2026-05-07 00:57 | 55.85104 | -4.47253 | 398 ft | 149 kts | 49° |
| 2026-05-07 00:57 | 55.85815 | -4.45924 | 225 ft | 148 kts | 49° |
| 2026-05-07 00:57 | 55.86520 | -4.44591 | 40 ft | 146 kts | 48° |
| 2026-05-07 00:58 | 55.87153 | -4.43407 | 37 ft | 109 kts | 47° |
| 2026-05-07 00:58 | 55.87504 | -4.42746 | 37 ft | 42 kts | 46° |
| 2026-05-07 00:58 | 55.87639 | -4.42496 | 37 ft | 24 kts | 46° |
| 2026-05-07 00:58 | 55.87738 | -4.42305 | 37 ft | 12 kts | 59° |
| 2026-05-07 00:59 | 55.87623 | -4.42181 | 37 ft | 15 kts | 206° |
| 2026-05-07 00:59 | 55.87533 | -4.42323 | 37 ft | 19 kts | 227° |
| 2026-05-07 00:59 | 55.87435 | -4.42509 | 37 ft | 22 kts | 225° |
| 2026-05-07 01:00 | 55.87299 | -4.42651 | 37 ft | 24 kts | 199° |
| 2026-05-07 01:00 | 55.87132 | -4.42759 | 37 ft | 27 kts | 200° |
| 2026-05-07 01:00 | 55.86964 | -4.42881 | 37 ft | 21 kts | 205° |
| 2026-05-07 01:00 | 55.86874 | -4.42965 | 37 ft | 14 kts | 221° |
| 2026-05-07 01:01 | 55.86828 | -4.43143 | 37 ft | 18 kts | 251° |
| 2026-05-07 01:01 | 55.86791 | -4.43374 | 37 ft | 21 kts | 255° |
| 2026-05-07 01:01 | 55.86750 | -4.43633 | 37 ft | 20 kts | 254° |
| 2026-05-07 01:01 | 55.86701 | -4.43818 | 37 ft | 15 kts | 208° |
| 2026-05-07 01:02 | 55.86627 | -4.43921 | 37 ft | 15 kts | 240° |
| 2026-05-07 01:02 | 55.86580 | -4.44028 | 37 ft | 7 kts | 202° |
| 2026-05-07 01:02 | 55.86545 | -4.44020 | 37 ft | 5 kts | 141° |
| 2026-05-07 01:02 | 55.86538 | -4.43975 | 37 ft | 2 kts | 74° |
| 2026-05-07 01:03 | 55.86550 | -4.43928 | 37 ft | 6 kts | 64° |
| 2026-05-07 01:03 | 55.86559 | -4.43897 | 37 ft | 2 kts | 63° |
| 2026-05-07 01:03 | 55.86560 | -4.43892 | 37 ft | 0 kts | 63° |